Time;durP1;ratioP1;P1;durP2;ratioP2;P2;SDS_P1;SDS_P2;PMS_P1;PMS_P2;Temp;Humidity;BMP_temperature;BMP_pressure;BME280_temperature;BME280_humidity;BME280_pressure;Samples;Min_cycle;Max_cycle;Signal;HPM_P1;HPM_P2
2022/11/15 00:02:36;;;;;;;28.65;15.35;;;7.90;99.90;;;;;;5043433;28;20064;-81
2022/11/15 00:05:21;;;;;;;27.45;13.90;;;7.90;99.90;;;;;;5040423;28;20025;-82
2022/11/15 00:08:05;;;;;;;28.58;15.07;;;8.00;99.90;;;;;;5042916;28;20403;-82
2022/11/15 00:10:58;;;;;;;26.02;13.55;;;8.00;99.90;;;;;;5046618;28;20697;-83
2022/11/15 00:13:43;;;;;;;26.13;13.25;;;8.00;99.90;;;;;;5042425;28;20400;-85
2022/11/15 00:16:28;;;;;;;29.65;15.10;;;8.00;99.90;;;;;;5042521;28;20488;-81
2022/11/15 00:19:13;;;;;;;32.38;15.88;;;8.00;99.90;;;;;;5029222;28;20057;-79
2022/11/15 00:21:58;;;;;;;26.83;15.13;;;8.00;99.90;;;;;;5042100;28;20037;-81
2022/11/15 00:24:43;;;;;;;27.30;14.23;;;8.10;99.90;;;;;;5041091;28;20056;-86
2022/11/15 00:27:28;;;;;;;30.05;14.88;;;8.10;99.90;;;;;;5042111;28;20037;-83
2022/11/15 00:30:13;;;;;;;24.80;14.05;;;8.10;99.90;;;;;;5040485;28;20037;-76
2022/11/15 00:33:05;;;;;;;27.70;16.23;;;8.10;99.90;;;;;;5039171;28;20057;-83
2022/11/15 00:35:50;;;;;;;27.35;14.38;;;8.10;99.90;;;;;;5023217;28;20037;-83
2022/11/15 00:38:37;;;;;;;25.63;14.73;;;8.10;99.90;;;;;;5045147;28;20386;-85
2022/11/15 00:41:22;;;;;;;27.33;13.57;;;8.10;99.90;;;;;;5051634;28;20041;-84
2022/11/15 00:44:07;;;;;;;20.17;12.45;;;8.10;99.90;;;;;;5036298;28;20396;-82
2022/11/15 00:46:52;;;;;;;31.27;16.90;;;8.10;99.90;;;;;;5034524;28;20043;-79
2022/11/15 00:49:36;;;;;;;24.25;13.90;;;8.20;99.90;;;;;;5046098;28;20040;-83
2022/11/15 00:52:21;;;;;;;26.73;15.52;;;8.20;99.90;;;;;;5048352;28;20404;-84
2022/11/15 00:55:08;;;;;;;28.52;15.50;;;8.20;99.90;;;;;;5047934;28;20033;-83
2022/11/15 00:57:53;;;;;;;32.58;18.48;;;8.20;99.90;;;;;;5045291;28;20033;-82
2022/11/15 01:00:38;;;;;;;26.50;15.95;;;8.20;99.90;;;;;;5044517;28;20052;-83
2022/11/15 01:03:23;;;;;;;35.40;22.13;;;8.20;99.90;;;;;;5036370;28;20029;-85
2022/11/15 01:06:09;;;;;;;26.27;15.75;;;8.20;99.90;;;;;;5045065;28;20036;-84
2022/11/15 01:08:55;;;;;;;22.05;12.55;;;8.20;99.90;;;;;;5043968;28;20123;-81
2022/11/15 01:11:39;;;;;;;22.83;13.93;;;8.20;99.90;;;;;;5059642;28;20059;-80
2022/11/15 01:14:25;;;;;;;20.33;12.95;;;8.20;99.90;;;;;;5046515;28;20021;-84
2022/11/15 01:17:10;;;;;;;17.65;12.63;;;8.20;99.90;;;;;;5037151;28;20036;-84
2022/11/15 01:19:55;;;;;;;22.92;13.88;;;8.30;99.90;;;;;;5045325;28;20463;-78
2022/11/15 01:22:39;;;;;;;15.25;10.77;;;8.30;99.90;;;;;;5048643;28;20033;-83
2022/11/15 01:25:24;;;;;;;13.02;8.70;;;8.30;99.90;;;;;;5049761;28;20467;-82
2022/11/15 01:28:09;;;;;;;16.85;11.93;;;8.40;99.90;;;;;;5050111;28;20471;-83
2022/11/15 01:30:58;;;;;;;19.80;13.18;;;8.40;99.90;;;;;;5048713;28;20044;-82
2022/11/15 01:33:43;;;;;;;22.45;14.73;;;8.40;99.90;;;;;;5033737;28;20039;-80
2022/11/15 01:36:28;;;;;;;19.90;14.15;;;8.40;99.90;;;;;;5040194;28;20028;-82
2022/11/15 01:39:12;;;;;;;18.88;11.88;;;8.50;99.90;;;;;;5047088;28;20033;-81
2022/11/15 01:41:57;;;;;;;15.93;10.18;;;8.50;99.90;;;;;;5030379;28;20628;-79
2022/11/15 01:44:50;;;;;;;18.80;12.63;;;8.50;99.90;;;;;;5049897;28;20859;-84
2022/11/15 01:47:40;;;;;;;18.25;13.95;;;8.50;99.90;;;;;;5052322;28;20044;-83
2022/11/15 01:50:30;;;;;;;19.73;13.15;;;8.50;99.90;;;;;;5032887;28;20051;-82
2022/11/15 01:53:17;;;;;;;18.45;12.73;;;8.60;99.90;;;;;;5047716;28;20041;-82
2022/11/15 01:56:08;;;;;;;20.50;12.93;;;8.60;99.90;;;;;;5049331;28;20033;-79
2022/11/15 01:58:56;;;;;;;17.73;11.75;;;8.60;99.90;;;;;;5047294;28;20053;-78
2022/11/15 02:01:42;;;;;;;16.58;11.13;;;8.60;99.90;;;;;;5047435;28;20039;-84
2022/11/15 02:04:33;;;;;;;17.65;12.65;;;8.70;99.90;;;;;;5048125;28;20037;-81
2022/11/15 02:07:20;;;;;;;19.50;12.18;;;8.70;99.90;;;;;;5037714;28;20530;-83
2022/11/15 02:10:16;;;;;;;25.20;11.57;;;8.70;99.90;;;;;;5038836;28;20036;-84
2022/11/15 02:13:02;;;;;;;13.63;9.65;;;8.70;99.90;;;;;;5041174;28;20045;-78
2022/11/15 02:16:15;;;;;;;14.77;11.18;;;8.80;99.90;;;;;;5042834;28;20036;-81
2022/11/15 02:19:31;;;;;;;13.30;10.35;;;8.80;99.90;;;;;;5023575;28;20052;-78
2022/11/15 02:22:54;;;;;;;14.65;9.93;;;8.90;99.90;;;;;;5035403;28;20053;-79
2022/11/15 02:25:58;;;;;;;14.13;10.93;;;8.90;99.90;;;;;;5049999;28;20249;-81
2022/11/15 02:29:05;;;;;;;14.05;10.70;;;8.90;99.90;;;;;;5039655;28;20032;-83
2022/11/15 02:32:25;;;;;;;15.02;11.30;;;8.90;99.90;;;;;;5051593;28;20049;-81
2022/11/15 02:35:39;;;;;;;15.65;10.65;;;9.00;99.90;;;;;;5046828;28;20036;-84
2022/11/15 02:39:00;;;;;;;14.38;11.05;;;9.00;99.90;;;;;;5035967;28;20541;-82
2022/11/15 02:43:56;;;;;;;14.88;10.48;;;9.00;99.90;;;;;;5049990;28;20060;-82
2022/11/15 02:45:17;;;;;;;12.70;9.82;;;9.00;99.90;;;;;;5048923;28;20044;-82
2022/11/15 02:48:05;;;;;;;14.95;11.30;;;9.10;99.90;;;;;;5049101;28;20036;-86
2022/11/15 02:50:51;;;;;;;15.48;10.88;;;9.10;99.90;;;;;;5027135;28;20029;-83
2022/11/15 02:53:36;;;;;;;14.02;11.13;;;9.10;99.90;;;;;;5051686;28;20029;-79
2022/11/15 02:56:21;;;;;;;17.77;12.40;;;9.10;99.90;;;;;;5040145;28;20029;-85
2022/11/15 02:59:27;;;;;;;15.70;10.80;;;9.20;99.90;;;;;;5029484;28;20059;-78
2022/11/15 03:02:34;;;;;;;15.57;10.93;;;9.20;99.90;;;;;;5047251;28;20041;-85
2022/11/15 03:05:37;;;;;;;10.95;8.80;;;9.20;99.90;;;;;;5047274;28;20037;-83
2022/11/15 03:08:39;;;;;;;14.50;10.55;;;9.20;99.90;;;;;;5064405;28;21213;-82
2022/11/15 03:11:25;;;;;;;14.40;9.43;;;9.20;99.90;;;;;;5034879;28;20038;-84
2022/11/15 03:14:37;;;;;;;17.08;11.20;;;9.30;99.90;;;;;;5029191;28;20041;-84
2022/11/15 03:17:45;;;;;;;10.90;8.00;;;9.30;99.90;;;;;;5035035;28;20033;-81
2022/11/15 03:20:32;;;;;;;14.68;10.98;;;9.30;99.90;;;;;;5033772;28;20045;-83
2022/11/15 03:23:17;;;;;;;12.77;9.93;;;9.40;99.90;;;;;;5045230;28;20041;-79
2022/11/15 03:26:08;;;;;;;12.25;8.85;;;9.40;99.90;;;;;;5029837;28;20033;-80
2022/11/15 03:29:01;;;;;;;12.90;9.15;;;9.50;99.90;;;;;;5048525;28;20033;-82
2022/11/15 03:31:51;;;;;;;11.07;9.32;;;9.50;99.90;;;;;;5037878;28;20027;-83
2022/11/15 03:34:39;;;;;;;10.98;9.20;;;9.50;99.90;;;;;;5034339;28;20049;-81
2022/11/15 03:37:58;;;;;;;12.95;10.88;;;9.50;99.90;;;;;;5032998;28;20037;-81
2022/11/15 03:40:49;;;;;;;11.23;8.65;;;9.50;99.90;;;;;;5034350;28;20041;-79
2022/11/15 03:43:42;;;;;;;12.32;9.38;;;9.50;99.90;;;;;;5050523;28;20045;-83
2022/11/15 03:46:47;;;;;;;12.10;10.45;;;9.60;99.90;;;;;;5029500;28;20491;-82
2022/11/15 03:49:35;;;;;;;13.13;9.23;;;9.60;99.90;;;;;;5030466;28;20029;-80
2022/11/15 03:52:22;;;;;;;12.15;9.18;;;9.70;99.90;;;;;;5033401;28;20499;-79
2022/11/15 03:55:10;;;;;;;11.95;9.00;;;9.70;99.90;;;;;;5044041;28;20032;-83
2022/11/15 03:57:58;;;;;;;11.23;8.55;;;9.70;99.90;;;;;;5046855;28;20044;-77
2022/11/15 04:00:43;;;;;;;15.52;11.13;;;9.80;99.90;;;;;;5028624;28;20041;-81
2022/11/15 04:03:28;;;;;;;14.85;10.52;;;9.80;99.90;;;;;;5029727;28;20396;-82
2022/11/15 04:06:13;;;;;;;14.45;11.43;;;9.80;99.90;;;;;;5044412;28;20029;-80
2022/11/15 04:08:58;;;;;;;17.23;13.32;;;9.80;99.90;;;;;;5044477;28;20504;-78
2022/11/15 04:11:43;;;;;;;18.50;11.98;;;9.80;99.90;;;;;;5038143;28;20036;-83
2022/11/15 04:14:27;;;;;;;13.35;9.25;;;9.80;99.90;;;;;;5049401;28;20028;-83
2022/11/15 04:17:13;;;;;;;10.27;7.20;;;9.90;99.90;;;;;;5027411;28;20052;-77
2022/11/15 04:26:16;;;;;;;12.50;9.93;;;10.00;99.90;;;;;;5047799;28;20033;-80
2022/11/15 04:32:06;;;;;;;14.05;10.82;;;10.10;99.90;;;;;;5051006;28;20033;-81
2022/11/15 04:34:51;;;;;;;14.30;11.65;;;10.10;99.90;;;;;;5049553;28;20035;-80
2022/11/15 04:37:36;;;;;;;13.65;11.02;;;10.20;99.90;;;;;;5036457;28;20455;-81
2022/11/15 04:40:21;;;;;;;16.40;11.82;;;10.20;99.90;;;;;;5046464;28;20029;-81
2022/11/15 04:43:07;;;;;;;13.82;9.00;;;10.30;99.90;;;;;;5050254;28;20028;-82
2022/11/15 04:45:52;;;;;;;12.07;8.93;;;10.30;99.90;;;;;;5049016;28;20047;-79
2022/11/15 04:48:37;;;;;;;14.30;11.52;;;10.30;99.90;;;;;;5049602;28;20045;-76
2022/11/15 04:51:23;;;;;;;13.93;10.07;;;10.40;99.90;;;;;;5051104;28;20503;-80
2022/11/15 04:54:08;;;;;;;14.15;10.40;;;10.40;99.90;;;;;;5035472;28;20041;-78
2022/11/15 04:56:53;;;;;;;15.82;10.75;;;10.40;99.90;;;;;;5050259;28;20051;-81
2022/11/15 04:59:39;;;;;;;13.18;11.40;;;10.40;99.90;;;;;;5046482;28;20142;-81
2022/11/15 05:04:18;;;;;;;16.65;12.07;;;10.40;99.90;;;;;;5054549;28;20047;-82
2022/11/15 05:05:29;;;;;;;17.98;12.32;;;10.50;99.90;;;;;;5055422;28;20214;-82
2022/11/15 05:08:14;;;;;;;16.25;10.63;;;10.50;99.90;;;;;;5054220;28;20044;-80
2022/11/15 05:10:59;;;;;;;15.52;11.68;;;10.50;99.90;;;;;;5055614;28;20473;-81
2022/11/15 05:13:45;;;;;;;12.20;9.88;;;10.50;99.90;;;;;;5056621;28;20033;-81
2022/11/15 05:16:30;;;;;;;16.88;11.82;;;10.60;99.90;;;;;;5046477;28;20032;-80
2022/11/15 05:19:15;;;;;;;19.63;13.98;;;10.60;99.90;;;;;;5054061;28;20044;-80
2022/11/15 05:22:00;;;;;;;17.25;13.23;;;10.60;99.90;;;;;;5039629;28;20159;-80
2022/11/15 05:24:45;;;;;;;15.65;12.10;;;10.60;99.90;;;;;;5054516;28;20379;-78
2022/11/15 05:27:30;;;;;;;20.73;13.38;;;10.60;99.90;;;;;;5054247;28;20036;-78
2022/11/15 05:30:16;;;;;;;14.32;12.27;;;10.60;99.90;;;;;;5036159;28;20036;-81
2022/11/15 05:33:01;;;;;;;14.18;10.05;;;10.60;99.90;;;;;;5054716;28;20037;-81
2022/11/15 05:35:54;;;;;;;13.70;9.80;;;10.60;99.90;;;;;;5052318;28;20036;-82
2022/11/15 05:38:39;;;;;;;15.10;11.38;;;10.70;99.90;;;;;;5050348;28;20036;-80
2022/11/15 05:41:35;;;;;;;12.85;9.55;;;10.70;99.90;;;;;;5035255;28;20040;-82
2022/11/15 05:44:23;;;;;;;16.85;11.63;;;10.70;99.90;;;;;;5050609;28;20574;-78
2022/11/15 05:47:10;;;;;;;16.67;11.68;;;10.70;99.90;;;;;;5048332;28;20060;-81
2022/11/15 05:49:57;;;;;;;15.85;12.05;;;10.70;99.90;;;;;;5030546;28;20051;-80
2022/11/15 05:52:43;;;;;;;20.83;13.40;;;10.70;99.90;;;;;;5037146;28;20391;-79
2022/11/15 05:55:28;;;;;;;13.43;9.45;;;10.70;99.90;;;;;;5033874;28;20037;-81
2022/11/15 05:58:13;;;;;;;13.55;11.05;;;10.70;99.90;;;;;;5029767;28;20483;-79
2022/11/15 06:00:59;;;;;;;14.90;11.23;;;10.70;99.90;;;;;;5031189;28;20037;-81
2022/11/15 06:03:44;;;;;;;14.93;11.20;;;10.70;99.90;;;;;;5034964;28;20033;-80
2022/11/15 06:06:29;;;;;;;17.08;11.40;;;10.80;99.90;;;;;;5030223;28;20396;-82
2022/11/15 06:09:14;;;;;;;16.85;11.63;;;10.80;99.90;;;;;;5043077;28;20032;-80
2022/11/15 06:11:59;;;;;;;20.80;13.52;;;10.80;99.90;;;;;;5035389;28;20032;-79
2022/11/15 06:14:44;;;;;;;17.60;13.50;;;10.80;99.90;;;;;;5032794;28;20059;-76
2022/11/15 06:17:29;;;;;;;13.70;10.77;;;10.80;99.90;;;;;;5050377;28;20036;-81
2022/11/15 06:20:14;;;;;;;15.00;10.27;;;10.80;99.90;;;;;;5030840;28;20518;-80
2022/11/15 06:23:01;;;;;;;20.58;14.73;;;10.80;99.90;;;;;;5052266;28;20033;-82
2022/11/15 06:25:46;;;;;;;22.27;14.23;;;10.80;99.90;;;;;;5065920;28;20463;-81
2022/11/15 06:28:32;;;;;;;15.40;11.70;;;10.80;99.90;;;;;;5031624;28;20029;-76
2022/11/15 06:31:16;;;;;;;13.05;10.13;;;10.80;99.90;;;;;;5032120;28;20036;-81
2022/11/15 06:34:01;;;;;;;10.90;8.48;;;10.80;99.90;;;;;;5049145;28;20480;-79
2022/11/15 06:36:46;;;;;;;12.85;9.50;;;10.80;99.90;;;;;;5036687;28;20024;-82
2022/11/15 06:39:30;;;;;;;16.15;10.25;;;10.90;99.90;;;;;;5044023;28;20029;-81
2022/11/15 06:42:15;;;;;;;13.85;10.13;;;10.90;99.90;;;;;;5051346;28;20040;-80
2022/11/15 06:45:00;;;;;;;13.23;10.38;;;10.90;99.90;;;;;;5043197;28;20044;-80
2022/11/15 06:47:46;;;;;;;11.35;8.57;;;10.90;99.90;;;;;;5049249;28;20376;-80
2022/11/15 06:50:31;;;;;;;14.75;10.85;;;10.90;99.90;;;;;;5027802;28;20484;-80
2022/11/15 06:53:16;;;;;;;15.25;11.02;;;10.90;99.90;;;;;;5048495;28;20041;-81
2022/11/15 06:56:03;;;;;;;15.05;11.43;;;10.90;99.90;;;;;;5046951;28;20033;-78
2022/11/15 06:58:48;;;;;;;13.57;11.05;;;10.90;99.90;;;;;;5033294;28;20065;-80
2022/11/15 07:01:33;;;;;;;13.52;9.30;;;10.90;99.90;;;;;;5037397;28;20041;-81
2022/11/15 07:04:18;;;;;;;17.55;12.40;;;10.90;99.90;;;;;;5037568;28;20036;-79
2022/11/15 07:07:03;;;;;;;13.77;12.13;;;10.90;99.90;;;;;;5030775;28;20372;-81
2022/11/15 07:09:48;;;;;;;14.20;12.00;;;11.00;99.90;;;;;;5046716;28;20039;-81
2022/11/15 07:12:33;;;;;;;15.70;11.88;;;11.00;99.90;;;;;;5031645;28;20032;-81
2022/11/15 07:15:19;;;;;;;13.98;9.82;;;11.00;99.90;;;;;;5034192;28;20021;-78
2022/11/15 07:18:04;;;;;;;12.90;9.57;;;11.00;99.90;;;;;;5048679;28;20097;-79
2022/11/15 07:20:49;;;;;;;11.55;10.32;;;11.00;99.90;;;;;;5029144;28;20045;-76
2022/11/15 07:23:37;;;;;;;10.80;7.47;;;11.00;99.90;;;;;;5048454;28;20530;-81
2022/11/15 07:26:22;;;;;;;14.88;9.93;;;11.00;99.90;;;;;;5030519;28;20040;-81
2022/11/15 07:29:07;;;;;;;12.15;8.73;;;11.00;99.90;;;;;;5046720;28;20032;-83
2022/11/15 07:31:53;;;;;;;22.48;15.88;;;11.00;99.90;;;;;;5049515;28;20036;-82
2022/11/15 07:34:37;;;;;;;13.15;10.43;;;11.00;99.90;;;;;;5044990;28;20033;-79
2022/11/15 07:37:22;;;;;;;13.20;10.48;;;11.00;99.90;;;;;;5049198;28;20036;-78
2022/11/15 07:40:08;;;;;;;16.38;11.73;;;11.00;99.90;;;;;;5044348;28;20024;-82
2022/11/15 07:42:58;;;;;;;12.63;10.32;;;11.00;99.90;;;;;;5048114;28;20029;-77
2022/11/15 07:45:44;;;;;;;19.10;13.75;;;11.00;99.90;;;;;;5044937;28;20586;-82
2022/11/15 07:48:30;;;;;;;14.90;10.55;;;11.00;99.90;;;;;;5047120;28;20028;-80
2022/11/15 07:51:16;;;;;;;10.45;8.68;;;11.00;99.90;;;;;;5034138;28;20049;-82
2022/11/15 07:54:01;;;;;;;11.68;9.57;;;11.10;99.90;;;;;;5051094;28;20483;-82
2022/11/15 07:56:46;;;;;;;12.75;9.77;;;11.10;99.90;;;;;;5051474;28;20048;-85
2022/11/15 07:59:31;;;;;;;13.65;10.25;;;11.10;99.90;;;;;;5045242;28;20452;-78
2022/11/15 08:02:17;;;;;;;11.00;8.70;;;11.10;99.90;;;;;;5036197;28;20033;-79
2022/11/15 08:05:02;;;;;;;11.45;10.25;;;11.10;99.90;;;;;;5031771;28;20024;-79
2022/11/15 08:07:47;;;;;;;12.93;9.23;;;11.10;99.90;;;;;;5049891;28;20452;-78
2022/11/15 08:10:33;;;;;;;11.23;10.02;;;11.20;99.90;;;;;;5043482;28;20043;-77
2022/11/15 08:13:18;;;;;;;10.80;8.35;;;11.20;99.90;;;;;;5044745;28;20040;-77
2022/11/15 08:16:05;;;;;;;14.80;12.13;;;11.20;99.90;;;;;;5029726;28;20048;-78
2022/11/15 08:18:50;;;;;;;13.38;9.98;;;11.20;99.90;;;;;;5045847;28;20276;-78
2022/11/15 08:21:35;;;;;;;13.23;11.15;;;11.30;99.90;;;;;;5047680;28;20314;-79
2022/11/15 08:24:20;;;;;;;13.13;10.20;;;11.30;99.90;;;;;;5048116;28;20040;-77
2022/11/15 08:27:05;;;;;;;14.38;10.30;;;11.30;99.90;;;;;;5051432;28;20931;-77
2022/11/15 08:29:50;;;;;;;17.35;12.35;;;11.40;99.90;;;;;;5030467;28;20480;-78
2022/11/15 08:32:35;;;;;;;13.70;10.63;;;11.40;99.90;;;;;;5048301;28;20415;-76
2022/11/15 08:35:20;;;;;;;14.02;11.25;;;11.40;99.90;;;;;;5046495;28;20036;-78
2022/11/15 08:38:05;;;;;;;13.93;11.00;;;11.40;99.90;;;;;;5047295;28;20412;-79
2022/11/15 08:41:00;;;;;;;10.80;9.57;;;11.40;99.90;;;;;;5030722;28;20044;-78
2022/11/15 08:43:45;;;;;;;17.58;11.60;;;11.50;99.90;;;;;;5038023;28;20534;-78
2022/11/15 08:46:30;;;;;;;12.55;9.35;;;11.50;99.90;;;;;;5051447;28;20609;-77
2022/11/15 08:49:15;;;;;;;8.88;7.50;;;11.60;99.90;;;;;;5043557;28;20455;-79
2022/11/15 08:52:00;;;;;;;15.30;11.55;;;11.60;99.90;;;;;;5046231;28;20029;-79
2022/11/15 08:54:45;;;;;;;13.40;10.52;;;11.60;99.90;;;;;;5028250;28;20055;-78
2022/11/15 08:57:30;;;;;;;11.35;9.45;;;11.70;99.90;;;;;;5044615;28;20645;-78
2022/11/15 09:00:16;;;;;;;13.65;11.20;;;11.70;99.90;;;;;;5046926;28;20526;-80
2022/11/15 09:03:05;;;;;;;12.73;10.90;;;11.80;99.90;;;;;;5051392;28;20037;-79
2022/11/15 09:05:54;;;;;;;11.05;9.88;;;11.80;99.90;;;;;;5050813;28;20033;-79
2022/11/15 09:08:39;;;;;;;15.05;9.35;;;11.90;99.90;;;;;;5035085;28;20041;-77
2022/11/15 09:11:26;;;;;;;13.77;10.85;;;11.90;99.90;;;;;;5053936;28;20032;-79
2022/11/15 09:14:12;;;;;;;13.98;10.52;;;12.00;99.90;;;;;;5035880;28;20151;-79
2022/11/15 09:16:58;;;;;;;13.00;10.68;;;12.00;99.90;;;;;;5047658;28;20040;-76
2022/11/15 09:19:43;;;;;;;18.48;13.32;;;12.00;99.90;;;;;;5030802;28;20480;-80
2022/11/15 09:22:28;;;;;;;14.57;12.30;;;12.10;99.90;;;;;;5051315;28;20052;-78
2022/11/15 09:25:13;;;;;;;15.45;12.35;;;12.00;99.90;;;;;;5051780;28;20685;-76
2022/11/15 09:27:58;;;;;;;15.05;10.82;;;12.00;99.90;;;;;;5050186;28;20033;-78
2022/11/15 09:30:43;;;;;;;20.13;14.10;;;12.00;99.90;;;;;;5043555;28;20032;-77
2022/11/15 09:33:29;;;;;;;15.23;11.90;;;12.00;99.90;;;;;;5034662;28;20139;-77
2022/11/15 09:36:14;;;;;;;15.70;13.45;;;12.00;99.90;;;;;;5051636;28;20021;-79
2022/11/15 09:38:59;;;;;;;19.13;12.65;;;12.00;99.90;;;;;;5049864;28;21203;-80
2022/11/15 09:42:08;;;;;;;16.08;11.38;;;11.90;99.90;;;;;;5038275;28;20503;-78
2022/11/15 09:45:12;;;;;;;10.77;9.68;;;12.00;99.90;;;;;;5038603;28;20059;-77
2022/11/15 09:48:25;;;;;;;10.45;8.23;;;12.00;99.90;;;;;;5046379;28;20483;-79
2022/11/15 09:51:35;;;;;;;14.70;12.07;;;12.00;99.90;;;;;;5035835;28;20139;-79
2022/11/15 09:54:07;;;;;;;17.20;12.25;;;12.10;99.90;;;;;;5029394;28;20033;-77
2022/11/15 09:56:37;;;;;;;15.27;11.30;;;12.20;99.90;;;;;;5021442;28;20033;-77
2022/11/15 09:59:19;;;;;;;13.40;10.40;;;12.20;99.90;;;;;;5009156;28;20052;-75
2022/11/15 10:01:55;;;;;;;11.60;9.82;;;12.20;99.90;;;;;;5051940;28;20043;-76
2022/11/15 10:04:23;;;;;;;14.10;10.65;;;12.40;99.90;;;;;;5051669;28;20040;-75
2022/11/15 10:07:24;;;;;;;10.07;9.00;;;12.60;99.90;;;;;;5048548;28;20032;-75
2022/11/15 10:10:17;;;;;;;10.07;8.68;;;13.00;99.90;;;;;;5025883;28;20052;-75
2022/11/15 10:12:47;;;;;;;;;;;13.30;99.90;;;;;;5038608;28;20377;-75
2022/11/15 10:15:15;;;;;;;9.52;7.57;;;13.40;99.90;;;;;;5028910;28;19909;-76
2022/11/15 10:18:28;;;;;;;7.90;7.03;;;13.50;99.90;;;;;;5030088;28;20051;-76
2022/11/15 10:21:15;;;;;;;9.10;6.85;;;13.60;99.90;;;;;;5045442;28;20032;-76
2022/11/15 10:23:41;;;;;;;6.82;5.47;;;13.60;99.90;;;;;;5047929;28;20040;-75
2022/11/15 10:26:13;;;;;;;7.07;5.32;;;13.40;99.90;;;;;;5013574;28;20033;-75
2022/11/15 10:28:40;;;;;;;5.90;4.73;;;13.20;99.90;;;;;;5029268;28;20399;-73
2022/11/15 10:31:25;;;;;;;7.25;6.00;;;13.10;99.90;;;;;;5046369;28;20032;-76
2022/11/15 10:34:11;;;;;;;10.68;6.15;;;13.10;99.90;;;;;;5036154;28;20038;-76
2022/11/15 10:36:37;;;;;;;9.57;6.22;;;13.00;99.90;;;;;;5031080;28;20052;-76
2022/11/15 10:39:03;;;;;;;10.02;5.90;;;12.90;99.90;;;;;;5047888;28;20037;-76
2022/11/15 10:41:37;;;;;;;5.57;4.53;;;12.80;99.90;;;;;;5050559;28;20028;-77
2022/11/15 10:44:06;;;;;;;4.55;3.70;;;12.80;99.90;;;;;;5040098;28;20033;-77
2022/11/15 10:46:37;;;;;;;5.78;3.83;;;12.80;99.90;;;;;;5036345;28;20037;-80
2022/11/15 10:49:14;;;;;;;4.43;2.45;;;12.90;99.90;;;;;;5044700;28;20033;-79
2022/11/15 10:52:03;;;;;;;3.72;2.45;;;12.90;99.90;;;;;;5051622;28;20040;-80
2022/11/15 10:54:35;;;;;;;5.47;2.78;;;13.00;99.90;;;;;;5030210;28;20052;-79
2022/11/15 10:57:08;;;;;;;8.43;5.60;;;13.10;99.90;;;;;;5030848;28;20032;-77
2022/11/15 10:59:37;;;;;;;6.90;4.65;;;13.10;99.90;;;;;;5047612;28;20059;-76
2022/11/15 11:02:23;;;;;;;9.98;6.22;;;13.10;99.90;;;;;;5036973;28;20045;-75
2022/11/15 11:04:51;;;;;;;4.40;3.22;;;13.10;99.90;;;;;;5035604;28;20052;-77
2022/11/15 11:07:24;;;;;;;5.28;2.85;;;13.00;99.90;;;;;;5038123;28;20036;-77
2022/11/15 11:09:57;;;;;;;;;;;12.90;99.90;;;;;;5042603;28;20395;-76
2022/11/15 11:12:27;;;;;;;;;;;12.90;99.90;;;;;;5020554;28;20417;-76
2022/11/15 11:14:53;;;;;;;5.88;3.08;;;12.80;99.90;;;;;;5049794;28;19912;-76
2022/11/15 11:17:34;;;;;;;4.80;2.15;;;12.80;99.90;;;;;;5013879;28;20044;-77
2022/11/15 11:20:06;;;;;;;8.45;2.63;;;12.80;99.90;;;;;;5044467;28;20040;-79
2022/11/15 11:22:38;;;;;;;8.60;4.57;;;12.70;99.90;;;;;;5050180;28;20033;-76
2022/11/15 11:25:16;;;;;;;6.63;1.90;;;12.70;99.90;;;;;;5034578;28;20501;-80
2022/11/15 11:28:21;;;;;;;3.53;1.25;;;12.70;99.90;;;;;;5031721;28;20025;-80
2022/11/15 11:31:04;;;;;;;2.55;0.85;;;12.70;99.90;;;;;;5041752;28;20040;-80
2022/11/15 11:34:09;;;;;;;2.28;0.98;;;12.60;99.90;;;;;;5023460;28;20029;-79
2022/11/15 11:36:40;;;;;;;4.72;0.80;;;12.50;99.90;;;;;;5022226;28;20480;-80
2022/11/15 11:39:29;;;;;;;4.35;0.80;;;12.50;99.90;;;;;;5022249;28;20033;-80
2022/11/15 11:42:17;;;;;;;3.25;1.13;;;12.40;99.90;;;;;;5028405;28;20377;-79
2022/11/15 11:44:57;;;;;;;2.08;0.60;;;12.30;99.90;;;;;;5039663;28;20030;-81
2022/11/15 11:47:30;;;;;;;2.22;0.70;;;12.30;99.90;;;;;;5040923;28;20026;-80
2022/11/15 11:50:02;;;;;;;2.45;0.80;;;12.20;99.90;;;;;;5032020;28;20039;-79
2022/11/15 11:52:38;;;;;;;3.92;0.70;;;12.20;99.90;;;;;;5044125;28;20025;-80
2022/11/15 11:55:18;;;;;;;4.78;0.70;;;12.20;99.90;;;;;;5020206;28;20053;-83
2022/11/15 11:57:50;;;;;;;2.38;0.60;;;12.10;99.90;;;;;;5046231;28;20709;-80
2022/11/15 12:00:30;;;;;;;3.35;0.70;;;12.10;99.90;;;;;;5027955;28;20049;-79
2022/11/15 12:03:10;;;;;;;3.20;0.65;;;12.10;99.90;;;;;;5041532;28;20056;-81
2022/11/15 12:05:49;;;;;;;3.65;0.85;;;12.10;99.90;;;;;;5029268;28;20039;-81
2022/11/15 12:08:45;;;;;;;3.88;0.50;;;12.10;99.90;;;;;;5026728;28;20036;-77
2022/11/15 12:11:44;;;;;;;4.38;0.95;;;12.00;99.90;;;;;;5043154;28;20625;-78
2022/11/15 12:14:29;;;;;;;3.85;0.55;;;12.10;99.90;;;;;;5008905;28;20040;-80
2022/11/15 12:16:58;;;;;;;4.82;0.70;;;12.10;99.90;;;;;;5032850;28;20037;-80
2022/11/15 12:19:25;;;;;;;2.58;0.50;;;12.10;99.90;;;;;;5020179;28;20040;-79
2022/11/15 12:22:17;;;;;;;2.65;0.77;;;12.10;99.90;;;;;;5017447;28;20392;-81
2022/11/15 12:24:45;;;;;;;2.67;0.50;;;12.10;99.90;;;;;;5044570;28;20036;-79
2022/11/15 12:27:56;;;;;;;3.22;0.90;;;12.10;99.90;;;;;;5013749;28;20044;-80
2022/11/15 12:30:25;;;;;;;2.03;0.70;;;12.10;99.90;;;;;;5007436;28;20052;-81
2022/11/15 12:32:57;;;;;;;2.40;0.70;;;12.10;99.90;;;;;;5047908;28;20041;-78
2022/11/15 12:35:42;;;;;;;2.80;0.60;;;12.10;99.90;;;;;;5054151;28;20037;-81
2022/11/15 12:38:12;;;;;;;1.65;0.50;;;12.00;99.90;;;;;;5035104;28;20355;-82
2022/11/15 12:41:18;;;;;;;3.03;0.60;;;12.10;99.90;;;;;;5053580;28;20021;-83
2022/11/15 12:43:46;;;;;;;5.63;0.77;;;12.10;99.90;;;;;;5054773;28;20044;-77
2022/11/15 12:46:29;;;;;;;6.53;3.53;;;12.10;99.90;;;;;;5020132;28;20043;-77
2022/11/15 12:49:00;;;;;;;11.60;3.00;;;12.10;99.90;;;;;;5020698;28;20032;-76
2022/11/15 12:51:48;;;;;;;24.05;13.60;;;12.10;99.90;;;;;;5037628;28;20052;-76
2022/11/15 12:54:23;;;;;;;6.75;2.53;;;12.10;99.90;;;;;;5019999;28;20032;-77
2022/11/15 12:57:08;;;;;;;5.82;2.35;;;12.20;99.90;;;;;;5025588;28;20034;-76
2022/11/15 13:00:12;;;;;;;3.88;1.92;;;12.20;99.90;;;;;;5038933;28;20061;-77
2022/11/15 13:02:43;;;;;;;6.20;2.47;;;12.20;99.90;;;;;;5035955;28;20045;-77
2022/11/15 13:05:18;;;;;;;6.93;3.47;;;12.20;99.90;;;;;;5030052;28;20032;-78
2022/11/15 13:07:45;;;;;;;5.25;1.38;;;12.20;99.90;;;;;;5032026;28;20052;-77
2022/11/15 13:10:29;;;;;;;4.35;1.00;;;12.20;99.90;;;;;;5051596;28;20032;-77
2022/11/15 13:13:00;;;;;;;12.88;6.40;;;12.20;99.90;;;;;;5050924;28;20048;-76
2022/11/15 13:15:51;;;;;;;4.30;1.20;;;12.20;99.90;;;;;;5031534;28;20036;-76
2022/11/15 13:18:29;;;;;;;14.25;7.35;;;12.20;99.90;;;;;;5031547;28;20041;-78
2022/11/15 13:20:56;;;;;;;3.28;1.00;;;12.20;99.90;;;;;;5027932;28;20029;-78
2022/11/15 13:23:22;;;;;;;2.80;0.73;;;12.20;99.90;;;;;;5042544;28;20038;-76
2022/11/15 13:26:01;;;;;;;2.80;0.60;;;12.20;99.90;;;;;;5043938;28;20033;-77
2022/11/15 13:28:58;;;;;;;2.90;0.60;;;12.20;99.90;;;;;;5050589;28;20036;-77
2022/11/15 13:31:41;;;;;;;1.70;0.40;;;12.20;99.90;;;;;;5044482;28;20045;-79
2022/11/15 13:34:24;;;;;;;;;;;12.20;99.90;;;;;;5026764;28;20033;-76
2022/11/15 13:36:50;;;;;;;1.98;0.47;;;12.20;99.90;;;;;;5038043;28;19917;-79
2022/11/15 13:39:33;;;;;;;2.45;0.70;;;12.20;99.90;;;;;;5028302;28;20025;-79
2022/11/15 13:42:00;;;;;;;2.25;0.50;;;12.10;99.90;;;;;;5050526;28;20029;-78
2022/11/15 13:44:31;;;;;;;3.05;0.85;;;12.10;99.90;;;;;;5048115;28;20055;-82
2022/11/15 13:47:06;;;;;;;2.80;0.30;;;12.10;99.90;;;;;;5037224;28;20404;-77
2022/11/15 13:49:34;;;;;;;1.73;0.30;;;12.10;99.90;;;;;;5053088;28;20048;-76
2022/11/15 13:52:04;;;;;;;3.03;0.20;;;12.10;99.90;;;;;;5054218;28;20391;-81
2022/11/15 13:54:50;;;;;;;2.13;0.35;;;12.10;99.90;;;;;;5044070;28;20035;-82
2022/11/15 13:57:22;;;;;;;2.25;0.60;;;12.10;99.90;;;;;;5051689;28;20052;-80
2022/11/15 13:59:53;;;;;;;3.00;0.45;;;12.10;99.90;;;;;;5018231;28;20040;-76
2022/11/15 14:02:30;;;;;;;4.00;0.40;;;12.10;99.90;;;;;;5052431;28;20036;-77
2022/11/15 14:05:01;;;;;;;2.33;0.75;;;12.10;99.90;;;;;;5033862;28;20041;-78
2022/11/15 14:07:28;;;;;;;1.92;0.50;;;12.10;99.90;;;;;;5048556;28;20040;-78
2022/11/15 14:09:55;;;;;;;2.08;0.40;;;12.10;99.90;;;;;;5046729;28;20380;-77
2022/11/15 14:12:28;;;;;;;2.38;0.40;;;12.10;99.90;;;;;;5044172;28;20033;-78
2022/11/15 14:14:56;;;;;;;1.35;0.32;;;12.10;99.90;;;;;;5042146;28;20041;-76
2022/11/15 14:17:28;;;;;;;4.40;0.30;;;12.10;99.90;;;;;;5046780;28;20404;-77
2022/11/15 14:19:55;;;;;;;1.65;0.30;;;12.00;99.90;;;;;;5016934;28;20029;-77